Data for 12/09/2016

Time Sea-Level Adjusted Pressure Absolute Pressure Temperature Relative Humidity Dew Point   
(mb) (inHg) (mb) (inHg) (C) (F) (%) (C) (F)
00:05 1020 30.12 849 25.07 -16.2 2.9 71 -20.3 -4.5
00:10 1020 30.12 849 25.07 -16.1 2.9 73 -20 -4
00:15 1020 30.12 849 25.07 -16.1 3.1 71 -20.1 -4.2
00:20 1020 30.12 849 25.07 -16 3.2 71 -20.1 -4.1
00:25 1020 30.12 849 25.07 -16 3.2 72 -20 -4
00:30 1020 30.12 849 25.07 -16 3.2 71 -20.1 -4.1
00:35 1019 30.09 849 25.07 -16 3.1 72 -20.1 -4.1
00:40 1019 30.09 849 25.07 -16.1 3.1 71 -20.2 -4.4
00:45 1020 30.12 849 25.07 -16 3.1 70 -20.3 -4.5
00:50 1020 30.12 849 25.07 -16 3.1 70 -20.3 -4.5
00:55 1020 30.12 849 25.07 -16.1 3.1 71 -20.1 -4.2
01:00 1019 30.09 849 25.07 -16.1 3.1 69 -20.5 -4.9
01:05 1019 30.09 848 25.04 -16.2 2.9 69 -20.6 -5.2
01:10 1019 30.09 848 25.04 -16.2 2.9 68 -20.8 -5.4
01:15 1019 30.09 848 25.04 -16.2 2.9 68 -20.8 -5.4
01:20 1019 30.09 848 25.04 -16.2 2.9 67 -20.9 -5.6
01:25 1019 30.09 848 25.04 -16.2 2.9 68 -20.8 -5.5
01:30 1019 30.09 848 25.04 -16.1 3 66 -21 -5.8
01:35 1019 30.09 849 25.07 -16 3.1 66 -21 -5.7
01:40 1020 30.12 849 25.07 -16 3.3 66 -20.9 -5.6
01:45 1019 30.09 849 25.07 -15.9 3.3 67 -20.8 -5.4
01:50 1020 30.12 849 25.07 -15.9 3.4 67 -20.7 -5.2
01:55 1020 30.12 849 25.07 -15.8 3.6 68 -20.4 -4.8
02:00 1020 30.12 849 25.07 -15.6 3.9 68 -20.2 -4.4
02:05 1020 30.12 849 25.07 -15.5 4.1 69 -19.9 -3.9
02:10 1020 30.12 849 25.07 -15.4 4.2 69 -19.9 -3.9
02:15 1020 30.12 849 25.07 -15.5 4.2 68 -20 -4
02:20 1020 30.12 849 25.07 -15.5 4.2 67 -20.3 -4.5
02:25 1020 30.12 849 25.07 -15.6 3.9 68 -20.3 -4.5
02:30 1020 30.12 849 25.07 -15.7 3.8 67 -20.6 -5
02:35 1020 30.12 849 25.07 -15.9 3.4 68 -20.5 -4.9
02:40 1020 30.12 850 25.1 -16 3.3 70 -20.2 -4.4
02:45 1020 30.12 850 25.1 -16 3.3 71 -20.1 -4.1
02:50 1020 30.12 850 25.1 -16 3.2 71 -20.2 -4.3
02:55 1020 30.12 850 25.1 -16 3.2 72 -20 -4
03:00 1021 30.15 850 25.1 -16 3.2 71 -20 -4.1
03:05 1020 30.12 850 25.1 -16 3.3 72 -19.9 -3.8
03:10 1020 30.12 850 25.1 -16 3.2 73 -19.7 -3.5
03:15 1020 30.12 850 25.1 -16 3.2 73 -19.8 -3.6
03:20 1020 30.12 850 25.1 -16 3.2 73 -19.8 -3.7
03:25 1020 30.12 850 25.1 -16 3.2 72 -19.9 -3.8
03:30 1020 30.12 850 25.1 -16 3.2 73 -19.8 -3.6
03:35 1020 30.12 850 25.1 -16 3.2 72 -20 -4
03:40 1020 30.12 849 25.07 -16 3.2 71 -20.1 -4.1
03:45 1020 30.12 850 25.1 -16 3.3 71 -20 -4
03:50 1021 30.15 850 25.1 -15.9 3.3 72 -19.9 -3.8
03:55 1020 30.12 850 25.1 -15.9 3.3 73 -19.7 -3.5
04:00 1020 30.12 850 25.1 -15.9 3.4 71 -19.9 -3.9
04:05 1020 30.12 850 25.1 -15.9 3.3 71 -20 -4.1
04:10 1020 30.12 849 25.07 -15.9 3.4 72 -19.9 -3.9
04:15 1020 30.12 849 25.07 -15.9 3.5 71 -20 -4
04:20 1020 30.12 849 25.07 -15.8 3.6 72 -19.8 -3.6
04:25 1020 30.12 849 25.07 -15.8 3.6 71 -20 -3.9
04:30 1020 30.12 849 25.07 -15.8 3.6 71 -19.9 -3.8
04:35 1020 30.12 849 25.07 -15.7 3.7 71 -19.9 -3.8
04:40 1020 30.12 849 25.07 -15.7 3.8 71 -19.8 -3.6
04:45 1020 30.12 849 25.07 -15.6 3.9 71 -19.7 -3.4
04:50 1020 30.12 849 25.07 -15.5 4.1 70 -19.7 -3.5
04:55 1020 30.12 849 25.07 -15.5 4.1 70 -19.8 -3.6
05:00 1020 30.12 849 25.07 -15.4 4.3 71 -19.6 -3.2
05:05 1020 30.12 849 25.07 -15.4 4.4 69 -19.9 -3.8
05:10 1020 30.12 849 25.07 -15.4 4.3 70 -19.7 -3.4
05:15 1020 30.12 849 25.07 -15.4 4.2 71 -19.6 -3.3
05:20 1020 30.12 849 25.07 -15.4 4.2 78 -18.4 -1.2
05:25 1020 30.12 849 25.07 -15.5 4.1 82 -18 -0.3
05:30 1020 30.12 849 25.07 -15.4 4.2 81 -18.1 -0.5
05:35 1020 30.12 850 25.1 -15.5 4.1 81 -18 -0.5
05:40 1020 30.12 850 25.1 -15.6 3.9 82 -18 -0.5
05:45 1020 30.12 850 25.1 -15.6 3.9 81 -18.1 -0.6
05:50 1020 30.12 850 25.1 -15.8 3.6 83 -18.1 -0.6
05:55 1020 30.12 850 25.1 -15.9 3.4 83 -18.2 -0.7
06:00 1020 30.12 850 25.1 -15.7 3.8 82 -18.1 -0.6
06:05 1020 30.12 850 25.1 -15.7 3.7 82 -18.1 -0.7
06:10 1020 30.12 850 25.1 -15.9 3.5 82 -18.3 -0.9
06:15 1020 30.12 849 25.07 -15.8 3.6 82 -18.3 -0.9
06:20 1020 30.12 849 25.07 -15.7 3.7 81 -18.2 -0.8
06:25 1020 30.12 849 25.07 -15.9 3.5 81 -18.4 -1.2
06:30 1020 30.12 849 25.07 -16.2 2.8 83 -18.5 -1.3
06:35 1020 30.12 849 25.07 -15.9 3.3 81 -18.4 -1.2
06:40 1020 30.12 849 25.07 -15.8 3.5 81 -18.3 -1
06:45 1020 30.12 849 25.07 -15.8 3.7 81 -18.3 -0.9
06:50 1020 30.12 849 25.07 -15.7 3.7 81 -18.3 -1
06:55 1020 30.12 849 25.07 -15.8 3.6 81 -18.3 -0.9
07:00 1020 30.12 849 25.07 -15.7 3.7 81 -18.3 -0.9
07:05 1020 30.12 849 25.07 -15.7 3.7 81 -18.3 -1
07:10 1020 30.12 849 25.07 -15.7 3.8 80 -18.4 -1.1
07:15 1020 30.12 849 25.07 -15.8 3.6 81 -18.3 -1
07:20 1020 30.12 849 25.07 -15.8 3.6 80 -18.5 -1.3
07:25 1020 30.12 849 25.07 -15.9 3.4 80 -18.6 -1.4
07:30 1020 30.12 849 25.07 -15.9 3.4 82 -18.4 -1.1
07:35 1020 30.12 850 25.1 -15.8 3.5 82 -18.3 -0.9
07:40 1020 30.12 850 25.1 -15.8 3.5 81 -18.3 -1
07:45 1020 30.12 850 25.1 -15.8 3.5 81 -18.4 -1
07:50 1020 30.12 850 25.1 -15.8 3.6 80 -18.5 -1.3
07:55 1020 30.12 850 25.1 -15.9 3.4 81 -18.4 -1.2
08:00 1020 30.12 850 25.1 -15.9 3.3 81 -18.5 -1.2
08:05 1020 30.12 850 25.1 -15.9 3.3 82 -18.4 -1.1
08:10 1021 30.15 850 25.1 -16 3.2 82 -18.4 -1.1
08:15 1021 30.15 850 25.1 -15.9 3.4 82 -18.4 -1.1
08:20 1020 30.12 850 25.1 -15.8 3.5 81 -18.3 -1
08:25 1020 30.12 850 25.1 -15.7 3.7 80 -18.4 -1.1
08:30 1020 30.12 850 25.1 -16 3.1 81 -18.6 -1.5
08:35 1020 30.12 850 25.1 -16 3.3 82 -18.4 -1.1
08:40 1020 30.12 850 25.1 -15.7 3.8 81 -18.3 -0.9
08:45 1021 30.15 850 25.1 -15.6 3.9 80 -18.3 -1
08:50 1020 30.12 850 25.1 -15.7 3.8 80 -18.4 -1.2
08:55 1021 30.15 850 25.1 -15.9 3.4 81 -18.5 -1.3
09:00 1021 30.15 850 25.1 -15.9 3.5 82 -18.3 -1
09:05 1021 30.15 850 25.1 -15.6 3.8 80 -18.3 -1
09:10 1021 30.15 850 25.1 -15.6 3.9 80 -18.3 -1
09:15 1021 30.15 850 25.1 -15.6 4 80 -18.3 -1
09:20 1021 30.15 850 25.1 -15.5 4 80 -18.3 -0.9
09:25 1021 30.15 850 25.1 -15.7 3.7 81 -18.3 -0.9
09:30 1021 30.15 850 25.1 -15.8 3.5 81 -18.4 -1.1
09:35 1021 30.15 850 25.1 -16 3.2 82 -18.5 -1.2
09:40 1021 30.15 850 25.1 -15.8 3.5 80 -18.6 -1.4
09:45 1021 30.15 850 25.1 -16 3.2 82 -18.4 -1.2
09:50 1021 30.15 850 25.1 -16 3.2 82 -18.4 -1.2
09:55 1021 30.15 850 25.1 -16.1 3 82 -18.5 -1.3
10:00 1021 30.15 850 25.1 -15.8 3.6 81 -18.4 -1
10:05 1021 30.15 850 25.1 -15.8 3.6 81 -18.3 -1
10:10 1021 30.15 850 25.1 -16 3.2 82 -18.4 -1.1
10:15 1020 30.12 850 25.1 -15.9 3.4 82 -18.4 -1.1
10:20 1020 30.12 850 25.1 -15.8 3.5 80 -18.6 -1.5
10:25 1021 30.15 850 25.1 -16 3.3 79 -18.8 -1.8
10:30 1020 30.12 850 25.1 -15.7 3.7 80 -18.5 -1.3
10:35 1020 30.12 850 25.1 -15.4 4.2 78 -18.4 -1.2
10:40 1021 30.15 850 25.1 -15.3 4.5 77 -18.4 -1.1
10:45 1021 30.15 850 25.1 -15.2 4.7 77 -18.3 -1
10:50 1020 30.12 850 25.1 -14.9 5.1 77 -18.1 -0.7
10:55 1020 30.12 850 25.1 -14.6 5.8 76 -17.9 -0.2
11:00 1020 30.12 850 25.1 -14.7 5.6 76 -18 -0.5
11:05 1020 30.12 849 25.07 -15.1 4.9 75 -18.6 -1.4
11:10 1020 30.12 850 25.1 -15.2 4.6 75 -18.6 -1.6
11:15 1020 30.12 850 25.1 -15.3 4.5 78 -18.3 -1
11:20 1021 30.15 850 25.1 -15.6 3.9 77 -18.8 -1.9
11:25 1021 30.15 850 25.1 -15.4 4.4 76 -18.7 -1.7
11:30 1021 30.15 850 25.1 -15.4 4.3 76 -18.7 -1.7
11:35 1021 30.15 850 25.1 -15.6 3.9 76 -18.9 -2
11:40 1021 30.15 850 25.1 -15.9 3.4 77 -19 -2.2
11:45 1021 30.15 850 25.1 -15.9 3.3 77 -19.1 -2.4
11:50 1021 30.15 850 25.1 -15.7 3.7 75 -19.1 -2.5
11:55 1021 30.15 850 25.1 -15.5 4.2 75 -19 -2.2
12:00 1021 30.15 850 25.1 -15.4 4.3 74 -19 -2.2
12:05 1021 30.15 850 25.1 -16.3 2.7 77 -19.4 -3
12:10 1021 30.15 850 25.1 -16.4 2.5 77 -19.5 -3.1
12:15 1021 30.15 850 25.1 -16.2 2.9 78 -19.2 -2.6
12:20 1021 30.15 850 25.1 -15.7 3.7 76 -19.1 -2.4
12:25 1021 30.15 850 25.1 -14.9 5.2 72 -18.9 -2
12:30 1021 30.15 850 25.1 -14.4 6 70 -18.8 -1.8
12:35 1021 30.15 850 25.1 -14.7 5.6 71 -18.8 -1.8
12:40 1021 30.15 850 25.1 -14.6 5.7 70 -18.9 -2.1
12:45 1021 30.15 850 25.1 -14.3 6.3 70 -18.6 -1.5
12:50 1021 30.15 850 25.1 -13.9 7 68 -18.5 -1.3
12:55 1020 30.12 850 25.1 -13.7 7.4 67 -18.6 -1.5
13:00 1020 30.12 850 25.1 -13.8 7.2 67 -18.7 -1.6
13:05 1020 30.12 849 25.07 -14 6.9 68 -18.6 -1.5
13:10 1020 30.12 849 25.07 -14.1 6.7 68 -18.7 -1.7
13:15 1020 30.12 849 25.07 -14.2 6.4 69 -18.7 -1.7
13:20 1020 30.12 849 25.07 -14.5 6 71 -18.6 -1.5
13:25 1020 30.12 849 25.07 -14.1 6.7 69 -18.6 -1.5
13:30 1020 30.12 849 25.07 -14.1 6.7 70 -18.4 -1.1
13:35 1020 30.12 849 25.07 -14 6.8 69 -18.5 -1.2
13:40 1020 30.12 849 25.07 -14.2 6.4 71 -18.4 -1.2
13:45 1020 30.12 849 25.07 -14.1 6.7 69 -18.5 -1.4
13:50 1019 30.09 849 25.07 -13.7 7.4 70 -18.1 -0.6
13:55 1019 30.09 849 25.07 -13.6 7.6 68 -18.2 -0.8
14:00 1019 30.09 848 25.04 -14.1 6.7 71 -18.2 -0.8
14:05 1019 30.09 848 25.04 -14.2 6.5 71 -18.3 -1
14:10 1019 30.09 848 25.04 -14.4 6.2 73 -18.2 -0.8
14:15 1019 30.09 848 25.04 -14.2 6.4 72 -18.2 -0.7
14:20 1019 30.09 848 25.04 -14.2 6.5 71 -18.4 -1.1
14:25 1019 30.09 848 25.04 -14.3 6.2 72 -18.3 -1
14:30 1019 30.09 848 25.04 -14 6.8 72 -18 -0.5
14:35 1018 30.06 848 25.04 -13.6 7.6 71 -17.8 -0.1
14:40 1018 30.06 847 25.01 -13.4 7.9 69 -17.9 -0.2
14:45 1018 30.06 847 25.01 -13.1 8.4 69 -17.6 0.3
14:50 1018 30.06 847 25.01 -13.1 8.4 69 -17.7 0.2
14:55 1018 30.06 847 25.01 -13.1 8.4 69 -17.6 0.3
15:00 1018 30.06 847 25.01 -13.2 8.3 69 -17.7 0.1
15:05 1018 30.06 847 25.01 -13.3 8.1 70 -17.7 0.2
15:10 1018 30.06 847 25.01 -13.3 8 71 -17.6 0.4
15:15 1018 30.06 847 25.01 -13.2 8.2 70 -17.7 0.2
15:20 1018 30.06 847 25.01 -13.2 8.2 70 -17.6 0.3
15:25 1018 30.06 847 25.01 -13.2 8.2 70 -17.5 0.4
15:30 1018 30.06 847 25.01 -13.2 8.3 70 -17.5 0.5
15:35 1018 30.06 847 25.01 -13.2 8.3 70 -17.5 0.4
15:40 1018 30.06 847 25.01 -13.6 7.5 71 -17.8 0
15:45 1018 30.06 848 25.04 -13.6 7.5 72 -17.6 0.3
15:50 1018 30.06 847 25.01 -13.6 7.5 71 -17.8 0
15:55 1018 30.06 848 25.04 -13.4 7.9 71 -17.6 0.2
16:00 1018 30.06 848 25.04 -13.3 8.1 70 -17.6 0.4
16:05 1018 30.06 848 25.04 -13.3 8 70 -17.7 0.2
16:10 1018 30.06 848 25.04 -13.3 8 70 -17.7 0.1
16:15 1019 30.09 848 25.04 -13.3 8 70 -17.6 0.3
16:20 1018 30.06 848 25.04 -13.4 7.8 71 -17.5 0.4
16:25 1018 30.06 848 25.04 -13.7 7.3 74 -17.5 0.5
16:30 1018 30.06 848 25.04 -13.7 7.4 74 -17.4 0.7
16:35 1018 30.06 848 25.04 -13.6 7.5 72 -17.7 0.1
16:40 1018 30.06 848 25.04 -13.9 7 74 -17.6 0.2
16:45 1018 30.06 847 25.01 -13.8 7.1 73 -17.7 0.2
16:50 1018 30.06 847 25.01 -13.9 6.9 74 -17.6 0.4
16:55 1018 30.06 847 25.01 -14.1 6.6 74 -17.7 0.1
17:00 1018 30.06 847 25.01 -14.1 6.6 75 -17.6 0.3
17:05 1018 30.06 847 25.01 -13.6 7.4 74 -17.4 0.7
17:10 1018 30.06 847 25.01 -13.5 7.7 74 -17.3 0.9
17:15 1018 30.06 847 25.01 -13.4 7.8 73 -17.3 0.8
17:20 1018 30.06 847 25.01 -13.6 7.5 75 -17.2 1.1
17:25 1018 30.06 847 25.01 -13.5 7.7 73 -17.4 0.7
17:30 1018 30.06 847 25.01 -13.7 7.4 74 -17.4 0.6
17:35 1018 30.06 847 25.01 -13.8 7.2 74 -17.4 0.7
17:40 1018 30.06 847 25.01 -13.6 7.5 74 -17.4 0.7
17:45 1018 30.06 847 25.01 -13.7 7.3 75 -17.2 1
17:50 1018 30.06 847 25.01 -13.7 7.3 75 -17.2 1
17:55 1018 30.06 847 25.01 -13.7 7.3 76 -17 1.4
18:00 1018 30.06 847 25.01 -13.5 7.8 76 -16.9 1.6
18:05 1017 30.03 847 25.01 -13.5 7.7 76 -16.8 1.7
18:10 1017 30.03 847 25.01 -13.6 7.6 77 -16.8 1.8
18:15 1017 30.03 846 24.98 -13.6 7.6 77 -16.7 1.9
18:20 1017 30.03 846 24.98 -13.6 7.6 80 -16.3 2.6
18:25 1017 30.03 846 24.98 -13.3 8.1 79 -16.2 2.8
18:30 1017 30.03 846 24.98 -13.2 8.3 80 -16 3.2
18:35 1017 30.03 846 24.98 -13 8.5 81 -15.7 3.7
18:40 1017 30.03 846 24.98 -13 8.6 80 -15.7 3.7
18:45 1017 30.03 846 24.98 -13.1 8.4 81 -15.7 3.8
18:50 1017 30.03 846 24.98 -13 8.5 82 -15.5 4.2
18:55 1017 30.03 846 24.98 -12.9 8.8 83 -15.3 4.5
19:00 1017 30.03 846 24.98 -12.8 8.9 83 -15.1 4.8
19:05 1017 30.03 846 24.98 -12.9 8.9 82 -15.3 4.4
19:10 1017 30.03 846 24.98 -13 8.6 84 -15.2 4.6
19:15 1017 30.03 846 24.98 -13 8.7 83 -15.2 4.6
19:20 1017 30.03 846 24.98 -13.1 8.5 84 -15.3 4.5
19:25 1017 30.03 846 24.98 -12.9 8.8 85 -15 5.1
19:30 1017 30.03 846 24.98 -12.7 9.2 84 -14.9 5.3
19:35 1016 30 846 24.98 -12.6 9.2 84 -14.8 5.3
19:40 1016 30 846 24.98 -12.5 9.4 83 -14.8 5.3
19:45 1016 30 846 24.98 -12.5 9.4 83 -14.8 5.3
19:50 1016 30 846 24.98 -12.5 9.5 83 -14.8 5.3
19:55 1016 30 845 24.95 -12.6 9.4 82 -15 5
20:00 1016 30 845 24.95 -13 8.7 84 -15.1 4.8
20:05 1016 30 845 24.95 -12.9 8.9 83 -15.2 4.6
20:10 1016 30 845 24.95 -13 8.7 84 -15.2 4.7
20:15 1016 30 845 24.95 -12.9 8.8 84 -15.1 4.9
20:20 1016 30 845 24.95 -12.7 9.1 82 -15.1 4.7
20:25 1016 30 845 24.95 -12.8 9 84 -15 5
20:30 1016 30 845 24.95 -12.7 9.2 83 -15 5
20:35 1016 30 845 24.95 -12.6 9.2 82 -15.1 4.8
20:40 1016 30 845 24.95 -12.8 8.9 82 -15.2 4.6
20:45 1016 30 845 24.95 -13.1 8.5 84 -15.3 4.5
20:50 1016 30 845 24.95 -13 8.5 83 -15.4 4.3
20:55 1016 30 845 24.95 -13.1 8.4 84 -15.3 4.4
21:00 1016 30 845 24.95 -12.9 8.7 83 -15.2 4.7
21:05 1016 30 845 24.95 -12.9 8.9 83 -15.2 4.6
21:10 1016 30 845 24.95 -12.8 9 82 -15.2 4.6
21:15 1016 30 845 24.95 -12.8 8.9 81 -15.4 4.3
21:20 1016 30 845 24.95 -12.9 8.7 83 -15.3 4.5
21:25 1016 30 845 24.95 -12.9 8.8 82 -15.3 4.5
21:30 1016 30 845 24.95 -13 8.6 83 -15.3 4.4
21:35 1016 30 845 24.95 -13.1 8.4 83 -15.4 4.2
21:40 1016 30 845 24.95 -13.3 8.2 84 -15.4 4.2
21:45 1016 30 845 24.95 -13.3 8 84 -15.5 4.1
21:50 1016 30 845 24.95 -13.4 8 84 -15.5 4.2
21:55 1015 29.97 845 24.95 -13.3 8.1 85 -15.3 4.5
22:00 1015 29.97 845 24.95 -13.1 8.4 84 -15.3 4.5
22:05 1015 29.97 845 24.95 -13 8.6 85 -15.1 4.9
22:10 1015 29.97 845 24.95 -13 8.6 84 -15.2 4.6
22:15 1015 29.97 844 24.92 -13.1 8.4 84 -15.3 4.5
22:20 1015 29.97 844 24.92 -13.1 8.4 85 -15.2 4.7
22:25 1015 29.97 844 24.92 -12.9 8.8 85 -15 5.1
22:30 1015 29.97 844 24.92 -12.6 9.4 83 -14.8 5.3
22:35 1015 29.97 844 24.92 -12.6 9.3 85 -14.7 5.5
22:40 1015 29.97 844 24.92 -12.4 9.6 84 -14.6 5.7
22:45 1015 29.97 844 24.92 -12.4 9.7 83 -14.7 5.5
22:50 1015 29.97 844 24.92 -12.5 9.5 84 -14.7 5.6
22:55 1015 29.97 844 24.92 -12.4 9.6 85 -14.5 5.9
23:00 1015 29.97 844 24.92 -12.4 9.7 85 -14.4 6.2
23:05 1015 29.97 844 24.92 -12.3 9.8 85 -14.3 6.3
23:10 1015 29.97 844 24.92 -12.2 10 86 -14.1 6.6
23:15 1015 29.97 844 24.92 -12.2 10.1 85 -14.1 6.5
23:20 1015 29.97 844 24.92 -12.2 10 86 -14 6.8
23:25 1015 29.97 844 24.92 -12 10.4 86 -13.9 7.1
23:30 1015 29.97 844 24.92 -11.9 10.7 85 -13.9 7
23:35 1015 29.97 844 24.92 -11.9 10.5 85 -14 6.9
23:40 1015 29.97 844 24.92 -12 10.5 86 -13.9 7
23:45 1015 29.97 844 24.92 -11.9 10.6 85 -13.9 7.1
23:50 1015 29.97 844 24.92 -11.9 10.6 86 -13.8 7.1
23:55 1015 29.97 844 24.92 -11.9 10.6 86 -13.8 7.2
24:00 1015 29.97 844 24.92 -11.9 10.6 86 -13.8 7.2